Inman, Kansas
Current Conditions -  °F | °C
As of 9:52 PM on Saturday 20 Dec 2014 (Local Time) from KHUT Reporting Station
Overcast Overcast  
Wind Chill: 36°   Ceiling: 1400
Heat Index: 43°   Visibility: 10mi
Dew Point: 36°   Wind: 14mph
Humidity: 76%   Direction: 190°S
Pressure: 30.06"   Gusts: NA
Location:  38.23°N, 97.77°W
Report Text: KHUT 210352Z 19012KT 10SM OVC014 06/02 A3006 RMK AO2 SLP179 T00610022
Loading
Personal Weather Stations






























Interactive Weather Map New forecast layout! Learn more

10-Day Weather Forecast

Advertisements
Track Severe Weather on mobile